投稿到民航资源网

外航一周空中运行事件综述(11.23-11.29)

 2015-11-30 来源:民航资源网 作者:罗石  [投稿排行榜]
2015-11-30 18:38:56

我来说两句(0) 分享

      本综述尽可能收集国外航空公司一周空中运行事件,并根据已有信息对事件综述,供各位民航工作者参考借鉴。

      11月23日

      挪威航空公司(Norwegian Air Shuttle)注册号LN-DYA的波音737-800飞机(机龄6.3年),执行从南特内里费岛机场(西班牙)到柏林舍讷费尔德(德国)的D8-5360航班。飞机在南特内里费岛机场08号跑道加速起飞时,机组在高速阶段中断起飞,飞机在接近跑道尽头处停止,右侧两个主轮胎爆胎。乘客在跑道上下机,并被送至航站楼。维修人员在现场更换轮胎。事件导致跑道关闭约10个小时。

      标签:飞机爆胎

      乌拉尔航空公司注册号VQ-BOF的空客A321-200飞机(机龄17.9年),执行从基希讷乌(摩尔多瓦)到莫斯科多莫杰多沃机场的U6-2768航班。飞机在多莫杰多沃机场14左跑道最后进近时,机组报告起落架不安全指示并复飞。飞机爬升至6000英尺高度,加入等待程序以执行检查单。由于前轮转弯功能失效,机组请求拖车随后将飞机拖离跑道。终止前一次进近约20分钟后,飞机在14左跑道安全着陆,并被拖至停机坪。

      标签:起落架故障

      11月24日

      英国汤姆森航空公司注册号G-OOBF的波音757-200飞机(机龄11.8年),执行从布里斯托尔(英国)到南特内里费岛机场(西班牙)的BY-6278航班。飞机在波尔图(葡萄牙)西南约50海里,高度37000英尺时,由于风挡破裂机组决定备降伦敦盖特威克机场。大约2小时50分钟后飞机安全着陆。

      标签:风挡破裂

      美国航空公司注册号N352AA的波音767-300飞机(机龄27.8年),执行从达拉斯沃斯堡机场到檀香山的AA-123航班。飞机在洛杉矶东部约150海里,高度36000英尺时,由于副翼故障机组决定备降洛杉矶。大约30分钟后飞机在洛杉矶安全着陆。

      航班换飞机执行,延误3小时后到达檀香山。

      标签:机械故障

      波罗的海航空公司注册号YL-BBL的波音737-300飞机(机龄17年),执行从里加(拉脱维亚)到柏林泰格尔机场(德国)的BT-211航班。飞机在柏林下降时遭遇强烈的晴空乱流,导致2名乘客和1名乘务员受伤,随后飞机安全着陆。受重伤乘客被送往医院,其他伤者在机场接受治疗。后续航班被取消。

      标签:晴空乱流

      新加坡航空公司注册号9V-STH的空客A330-300飞机(机龄6.6年),执行从吉隆坡到新加坡的SQ-107航班。飞机在新加坡20右跑道进近时遭遇雷击。当地时间12:37飞机在20右跑道安全着陆。

      飞机无法执行后续航班,着陆约42小时后仍停留在机场。

      天气报文显示事发时机场附近有强雷雨。

      WSSS 240500Z VRB05KT 1500 R20R/1500D R20C/0900N +TSRA FEW006 FEW013CB SCT014TCU BKN140 24/23 Q1011 BECMG FM0515 TL0545 5000 RA BECMG FM0615 TL0640 NSW

      WSSS 240430Z 19004KT 180V300 3000 1200S R20R/P2000 R20C/1200D TSRA FEW006 SCT013TCU FEW015CB 26/25 Q1010 TEMPO TL0450 1200 BECMG FM0450 TL0520 6000 NSW

      WSSS 240400Z 25006KT 210V310 1800 R20R/1500U R20C/1100U TSRA FEW010 FEW014CB SCT016TCU 25/24 Q1010 RESHRA BECMG TL0430 4000 -TSRA BECMG FM0430 TL0500 6000 NSW

      标签:飞机雷击

      美国Trans States航空公司注册号N623AE的ERJ-145飞机,执行从蒙特利尔(加拿大)到纽约拉瓜迪亚机场的AX-4151航班。飞机在蒙特利尔起始爬升阶段宣布紧急状态并报告驾驶舱出现烟雾。机组在约2500英尺高度停止爬升并返航蒙特利尔,离场约10分钟后飞机安全着陆。

      标签:飞机烟雾

      11月25日

      卢森堡航空公司注册号LX-LGE的DHC-8-400飞机(机龄6年),执行从卢森堡到伦敦城市机场的LG-4605航班。飞机在伦敦安全着陆后,航后检查发现约1平方米大小的左发动机整流罩面板丢失,航空公司称面板在飞机离场时脱落,但机组并未发现。

      标签:整流罩面板脱落

      美国航空公司注册号N126UW的空客A320-200飞机(机龄6年),执行从坦帕到费城(美国)的AA-782航班。飞机从坦帕01左跑道离场爬升通过16000英尺高度时,由于滑油出现零压力及超温指示,机组关闭左发动机并返航坦帕,离场约40分钟后放飞机在01左跑道安全着陆,随后滑行至停机坪。

      标签:机械故障

      美国联合航空公司注册号N405UA的空客A320-200飞机(机龄22.1年),执行从萨克拉门托到到丹佛的UA-2005航班。飞机从萨克拉门托34右跑道离场后,机组在约8000英尺高度停止爬升,并报告右发动机遭受鸟击且发动机需要关闭。随后飞机返航萨克拉门托,离场约15分钟后飞机在34右跑道安全着陆。

      航班换飞机执行,延误6.5小时后到达丹佛。

      标签:飞机鸟击

      维珍美国航空公司注册号N631VA的空客A320-200飞机(机龄8.6年),执行从纽瓦克到旧金山的VX-193航班。飞机在丹佛南部约20海里,高度36000英尺时,机组报告驾驶舱出现烟雾并备降丹佛。大约20分钟后飞机在丹佛35左跑道安全着陆并停在跑道上,随后滑行至停机位。

      飞机停留后再次起飞,延误3小时40分钟后到达旧金山。

      标签:飞机烟雾

      乌拉尔航空公司注册号VP-BTE的空客A319-100飞机(机龄12.9年),执行从叶卡捷琳堡到莫斯科多莫杰多沃机场(俄罗斯)的U6-270航班。飞机从叶卡捷琳堡26右跑道离场爬升时,机组收到起落架未完全收上指示,在8000英尺高度停止爬升后返航叶卡捷琳堡,离场约15分钟后飞机在26右跑道安全着陆。

      标签:起落架故障

      11月26日

      瑞士国际航空公司注册号HB-JHC的空客A330-300飞机(机龄6.4年),执行从苏黎世到纽瓦克的LX-18航班。飞机从苏黎世16号跑道离场爬升通过9000英尺高度时,机组宣布紧急状态并报告液压系统故障。飞机爬升至12000英尺高度,加入等待程序以执行检查单。随后飞机返航苏黎世,在16号跑道安全着陆后停在跑道上,应急服务部门检查刹车温度集轮胎状况后飞机被拖离跑道。

      标签:液压系统故障

      南非Safair航空公司注册号ZS-JRK的波音737-400飞机(机龄23.6年),执行从开普敦到伊丽莎白港(南非)的FA-130航班。飞机在开普敦19号跑道离场爬升时,机组被告知疑似发生机尾擦地,抬前轮时机尾产生烟雾。机组在8000英尺高度改平并返航开普敦,离场约20分钟后飞机在19号跑道安全着陆。

      飞机经过检查后再次起飞,延误75分钟后到达伊丽莎白港。

      标签:机尾擦地

      墨西哥Magnicharters航空公司注册号XA-UNM的波音737-300飞机(机龄27.1年),执行从坎昆到墨西哥城(墨西哥)的GMT-779航班。当地时间18:26(世界协调时00:26)飞机在墨西哥城05左跑道着陆滑跑时,左侧主起落架坍塌。乘客通过客梯车在跑道上下机,无人员受伤,飞机严重受损。跑道关闭近4个小时。

      标签:起落架损坏

      民航资源网相关报道:《墨西哥客机着陆时起落架坍塌 发动机机翼损毁

      11月28日

      美国航空公司注册号N393AN的波音767-300飞机(机龄17.6年),执行从米兰马尔彭萨机场(意大利)到纽约肯尼迪机场的AA-199航班。飞机在伦敦希斯罗机场南部约170海里,高度32000英尺时,机组报告风挡破裂,下降至12000英尺高度并备降伦敦希思罗机场,离开32000英尺高度约50分钟后飞机在27左跑道安全着陆。

      图:

      标签:风挡破裂

      民航资源网相关报道:《美国航空767客机驾驶舱风挡破裂紧急备降

      11月29日

      全日空注册号JA712A的波音777-200飞机(机龄11.1年),执行从福冈到东京羽田的NH-264航班。飞机起飞后不久机组发现左发排气温度超标,机组关闭引擎,随后返航福冈。

      标签:机械故障

    2荐闻榜

    更多文章和观点请访问罗石专题

    发表评论
    发表请先 登陆/注册

    严禁发布攻击他人、言语粗俗、涉及政治等违反规定的言论,违者法办!